Latest Weather Observations for Albury

IDV60801

Issued at 1:32 pm EST Sunday 25 September 2016 (issued every 30 minutes, with the page automatically refreshed every 10 minutes)

About weather observations | Map of weather stations | Latest weather observations for VIC | Other Formats
Station Details ID: 072160 Name: ALBURY AIRPORT AWS Lat: -36.07 Lon: 146.95 Height: 163.5 m
Data from the previous 72 hours. | See also: Recent months at Albury
Date/Time
EST
Temp
°C
App
Temp
°C
Dew
Point
°C
Rel
Hum
%
Delta-T
°C
Wind Press
QNH
hPa
Press
MSL
hPa
Rain since
9am
mm
Dir  Spd
km/h
Gust
km/h
Spd
kts
Gust
kts
25/01:30pm 16.7 11.3 9.6 63 3.7 W 28 37 15 20 1009.0 1009.1 0.0
25/01:00pm 17.0 12.5 11.3 69 3.1 WNW 26 33 14 18 1009.0 1009.1 0.0
25/12:30pm 16.3 12.5 11.0 71 2.9 W 22 30 12 16 1009.2 1009.3 0.0
25/12:00pm 16.0 13.2 11.4 74 2.5 W 17 22 9 12 1009.4 1009.4 0.0
25/11:30am 14.9 10.7 9.9 72 2.6 W 22 33 12 18 1009.5 1009.5 0.0
25/11:00am 14.6 10.5 10.2 75 2.3 W 22 30 12 16 1009.5 1009.5 0.0
25/10:30am 15.6 12.9 11.8 78 2.1 WNW 17 22 9 12 1009.0 1009.1 0.0
25/10:03am 14.5 12.4 11.3 81 1.7 WSW 13 20 7 11 1009.0 1009.1 0.0
25/10:00am 14.4 12.1 10.6 78 2.0 WSW 13 20 7 11 1009.0 1009.1 0.0
25/09:30am 13.7 12.5 11.6 87 1.1 W 9 13 5 7 1009.0 1009.1 0.0
25/09:08am 12.4 12.5 11.6 95 0.4 SW 2 7 1 4 1009.0 1009.1 0.0
25/09:02am 12.4 12.9 11.6 95 0.4 CALM 0 0 0 0 1008.9 1009.0 0.0
25/09:00am 12.4 13.0 11.8 96 0.3 CALM 0 2 0 1 1008.8 1008.9 3.0
25/08:30am 12.0 12.1 11.5 97 0.3 SSW 2 7 1 4 1008.7 1008.8 2.6
25/08:02am 11.9 11.9 11.3 96 0.3 S 2 6 1 3 1008.6 1008.7 1.8
25/08:00am 11.9 11.9 11.3 96 0.3 S 2 6 1 3 1008.6 1008.7 1.8
25/07:57am 11.9 12.3 11.3 96 0.3 CALM 0 6 0 3 1008.6 1008.7 1.8
25/07:30am 11.6 11.9 11.0 96 0.3 CALM 0 0 0 0 1008.3 1008.4 1.8
25/07:20am 11.6 11.9 11.0 96 0.3 CALM 0 0 0 0 1008.3 1008.4 1.8
25/07:00am 11.4 11.7 10.9 97 0.3 CALM 0 0 0 0 1008.2 1008.3 1.8
25/06:30am 11.2 10.7 10.7 97 0.3 SE 4 6 2 3 1007.9 1008.0 1.8
25/06:00am 11.0 10.1 10.5 97 0.3 SE 6 7 3 4 1007.5 1007.5 1.8
25/05:53am 11.1 10.2 10.6 97 0.3 SSE 6 7 3 4 1007.5 1007.5 1.8
25/05:30am 11.1 10.2 10.6 97 0.3 SE 6 7 3 4 1007.5 1007.5 1.8
25/05:00am 11.1 10.2 10.8 98 0.2 SE 6 6 3 3 1007.3 1007.3 1.8
25/04:30am 11.1 10.2 10.8 98 0.2 ESE 6 7 3 4 1007.2 1007.2 1.8
25/04:00am 11.2 10.2 10.9 98 0.2 E 7 9 4 5 1007.2 1007.2 1.8
25/03:58am 11.2 10.2 10.9 98 0.2 ENE 7 9 4 5 1007.2 1007.2 1.8
25/03:30am 11.5 10.5 11.0 97 0.3 SE 7 7 4 4 1007.2 1007.2 1.6
25/03:00am 11.6 10.7 10.8 95 0.4 WSW 6 7 3 4 1007.4 1007.4 1.6
25/02:44am 11.7 10.6 10.8 94 0.5 WSW 7 9 4 5 1007.5 1007.5 1.4
25/02:40am 11.8 10.8 10.9 94 0.5 W 7 9 4 5 1007.6 1007.7 1.4
25/02:30am 11.9 10.9 11.1 95 0.4 W 7 9 4 5 1007.5 1007.5 1.4
25/02:24am 12.0 11.0 11.1 94 0.5 W 7 11 4 6 1007.5 1007.5 1.2
25/02:00am 12.1 11.0 10.7 91 0.7 SSE 7 7 4 4 1007.5 1007.5 0.4
25/01:30am 12.4 12.6 10.6 89 0.9 CALM 0 0 0 0 1007.6 1007.7 0.2
25/01:00am 12.5 12.7 10.6 88 1.0 CALM 0 0 0 0 1007.6 1007.7 0.2
25/12:30am 11.9 11.6 10.0 88 1.0 NNW 2 6 1 3 1007.7 1007.8 0.2
25/12:00am 12.4 11.3 10.0 85 1.2 N 6 7 3 4 1007.6 1007.7 0.2
 
Date/Time
EST
Temp
°C
App
Temp
°C
Dew
Point
°C
Rel
Hum
%
Delta-T
°C
Wind Press
QNH
hPa
Press
MSL
hPa
Rain since
9am
mm
Dir  Spd
km/h
Gust
km/h
Spd
kts
Gust
kts
24/11:30pm 12.5 12.0 9.5 82 1.5 NNE 2 7 1 4 1007.9 1008.0 0.2
24/11:00pm 12.5 11.3 10.4 87 1.1 E 7 9 4 5 1007.9 1008.0 0.2
24/10:30pm 13.5 12.7 9.7 78 2.0 NNW 4 9 2 5 1008.2 1008.3 0.2
24/10:00pm 13.4 12.7 10.0 80 1.8 NNE 4 7 2 4 1008.4 1008.5 0.0
24/09:30pm 13.7 13.8 10.1 79 1.9 CALM 0 0 0 0 1008.3 1008.4 0.0
24/09:00pm 13.8 13.9 10.2 79 1.9 CALM 0 0 0 0 1008.3 1008.4 0.0
24/08:30pm 14.5 13.1 9.7 73 2.5 NNW 7 7 4 4 1008.2 1008.3 0.0
24/08:00pm 14.7 13.4 9.3 70 2.8 NW 6 9 3 5 1008.2 1008.3 0.0
24/07:30pm 14.8 13.3 9.2 69 2.9 W 7 9 4 5 1007.9 1008.0 0.0
24/07:00pm 15.3 13.4 9.0 66 3.3 W 9 15 5 8 1007.6 1007.7 0.0
24/06:30pm 15.6 12.7 9.5 67 3.2 WNW 15 20 8 11 1007.6 1007.7 0.0
24/06:00pm 16.4 12.6 9.1 62 3.8 WNW 19 30 10 16 1007.9 1008.0 0.0
24/05:30pm 17.3 14.0 9.7 61 4.0 NW 17 22 9 12 1008.0 1008.1 0.0
24/05:00pm 17.2 15.8 10.8 66 3.5 NW 9 15 5 8 1007.6 1007.7 0.0
24/04:30pm 17.9 15.2 9.0 56 4.7 NNW 13 19 7 10 1007.4 1007.4 0.0
24/04:00pm 19.0 16.4 9.2 53 5.2 N 13 20 7 11 1007.5 1007.5 0.0
24/03:30pm 18.6 15.8 8.6 52 5.2 NNW 13 24 7 13 1007.8 1007.9 0.0
24/03:00pm 20.2 16.5 7.9 45 6.4 NW 17 24 9 13 1008.1 1008.2 0.0
24/02:30pm 19.2 15.3 8.5 50 5.6 N 19 26 10 14 1008.2 1008.3 0.0
24/02:00pm 19.2 15.3 8.8 51 5.5 N 19 26 10 14 1008.4 1008.5 0.0
24/01:30pm 19.4 14.5 8.4 49 5.8 N 24 32 13 17 1008.4 1008.5 0.0
24/01:00pm 18.9 16.3 10.7 59 4.5 NNW 15 22 8 12 1008.7 1008.8 0.0
24/12:30pm 18.0 14.9 10.4 61 4.1 NNE 17 20 9 11 1009.5 1009.5 0.0
24/12:00pm 17.9 16.1 9.5 58 4.5 N 9 15 5 8 1009.9 1009.9 0.0
24/11:30am 18.4 16.3 11.2 63 3.9 WNW 13 22 7 12 1010.2 1010.2 0.0
24/11:00am 16.2 15.1 12.0 76 2.3 SW 9 15 5 8 1010.8 1010.8 0.0
24/10:30am 16.6 15.0 11.7 73 2.7 ESE 11 19 6 10 1011.1 1011.1 0.0
24/10:00am 16.3 15.2 11.9 75 2.4 E 9 13 5 7 1011.6 1011.6 0.0
24/09:30am 15.6 15.1 12.5 82 1.7 E 7 13 4 7 1011.9 1011.9 0.0
24/09:00am 14.1 13.2 11.3 83 1.5 ESE 7 11 4 6 1012.3 1012.3 0.0
24/08:30am 13.4 12.7 11.5 88 1.0 NE 6 7 3 4 1012.4 1012.4 0.0
24/08:00am 11.7 11.7 11.1 96 0.3 SE 2 7 1 4 1012.3 1012.3 0.0
24/07:30am 11.0 10.5 10.7 98 0.2 SSE 4 9 2 5 1012.4 1012.4 0.0
24/07:00am 10.5 10.6 10.2 98 0.2 CALM 0 0 0 0 1012.4 1012.4 0.0
24/06:30am 10.4 9.1 10.1 98 0.2 ENE 7 7 4 4 1012.1 1012.1 0.0
24/06:00am 10.1 8.5 10.1 100 0.0 NW 9 13 5 7 1012.2 1012.2 0.0
24/05:30am 9.5 9.4 9.5 100 0.0 CALM 0 0 0 0 1011.9 1011.9 0.0
24/05:00am 9.1 8.9 9.1 100 0.0 CALM 0 0 0 0 1011.8 1011.8 0.0
24/04:30am 8.7 8.4 8.7 100 0.0 CALM 0 0 0 0 1011.6 1011.6 0.0
24/04:00am 8.6 8.3 8.5 99 0.0 CALM 0 0 0 0 1011.8 1011.8 0.0
24/03:30am 8.4 8.0 8.1 98 0.1 CALM 0 0 0 0 1011.9 1011.9 0.0
24/03:00am 8.8 8.4 8.4 97 0.2 CALM 0 0 0 0 1012.0 1012.0 0.0
24/02:30am 9.6 9.5 9.5 99 0.1 CALM 0 0 0 0 1012.1 1012.1 0.0
24/02:00am 9.8 9.7 9.3 97 0.3 CALM 0 0 0 0 1012.2 1012.2 0.0
24/01:30am 10.0 9.9 9.5 97 0.3 CALM 0 0 0 0 1012.4 1012.4 0.0
24/01:00am 10.5 10.5 9.9 96 0.3 CALM 0 0 0 0 1012.4 1012.4 0.0
24/12:30am 10.7 10.6 9.6 93 0.6 CALM 0 0 0 0 1012.4 1012.4 0.0
24/12:00am 11.3 11.3 9.9 91 0.7 CALM 0 4 0 2 1012.4 1012.4 0.0
 
Date/Time
EST
Temp
°C
App
Temp
°C
Dew
Point
°C
Rel
Hum
%
Delta-T
°C
Wind Press
QNH
hPa
Press
MSL
hPa
Rain since
9am
mm
Dir  Spd
km/h
Gust
km/h
Spd
kts
Gust
kts
23/11:30pm 12.3 12.2 10.7 90 0.8 SE 2 7 1 4 1012.7 1012.8 0.0
23/11:00pm 12.6 12.8 10.7 88 1.0 CALM 0 0 0 0 1012.8 1012.9 0.0
23/10:30pm 12.1 12.2 10.3 89 0.9 CALM 0 0 0 0 1012.8 1012.9 0.0
23/10:00pm 12.6 12.8 10.7 88 1.0 CALM 0 0 0 0 1012.7 1012.8 0.0
23/09:30pm 13.0 12.4 10.5 85 1.3 ENE 4 6 2 3 1012.7 1012.8 0.0
23/09:00pm 13.2 13.4 10.4 83 1.5 CALM 0 0 0 0 1012.7 1012.8 0.0
23/08:30pm 14.3 13.1 10.3 77 2.1 NNW 7 9 4 5 1012.8 1012.9 0.0
23/08:00pm 14.5 13.2 9.9 74 2.4 NNW 7 9 4 5 1012.6 1012.6 0.0
23/07:30pm 14.2 12.5 9.8 75 2.3 NNW 9 11 5 6 1012.3 1012.3 0.0
23/07:00pm 15.2 13.9 9.8 70 2.8 NNW 7 11 4 6 1012.1 1012.1 0.0
23/06:30pm 15.7 13.9 9.6 67 3.2 WNW 9 11 5 6 1011.9 1011.9 0.0
23/06:00pm 16.5 14.4 9.7 64 3.6 W 11 13 6 7 1011.7 1011.7 0.0
23/05:30pm 18.4 16.6 9.5 56 4.7 W 9 13 5 7 1011.5 1011.5 0.0
23/05:00pm 19.3 17.9 9.5 53 5.2 WNW 7 13 4 7 1011.5 1011.5 0.0
23/04:30pm 19.7 18.2 8.4 48 5.9 NNE 6 9 3 5 1011.4 1011.4 0.0
23/04:00pm 19.5 17.8 8.2 48 5.9 NNE 7 11 4 6 1011.6 1011.6 0.0
23/03:30pm 19.8 18.6 8.2 47 6.1 N 4 11 2 6 1011.8 1011.8 0.0
23/03:00pm 19.1 17.3 7.8 48 5.8 ESE 7 11 4 6 1012.0 1012.0 0.0
23/02:30pm 18.7 16.7 6.9 46 6.0 ESE 7 13 4 7 1012.2 1012.2 0.0
23/02:00pm 18.9 16.9 7.0 46 6.0 SSE 7 11 4 6 1012.5 1012.5 0.0
23/01:30pm 18.8 16.8 7.3 47 5.9 SSW 7 17 4 9 1013.1 1013.2 0.0
23/01:00pm 18.4 16.5 8.9 54 5.0 SSE 9 17 5 9 1013.5 1013.6 0.0
23/12:30pm 17.8 15.8 8.6 55 4.8 ESE 9 15 5 8 1013.7 1013.8 0.0
23/12:00pm 17.7 15.7 8.6 55 4.7 SSE 9 13 5 7 1014.3 1014.4 0.0
23/11:30am 17.2 15.4 9.4 60 4.1 SE 9 17 5 9 1014.8 1014.9 0.0
23/11:00am 16.7 14.9 9.6 63 3.7 SSE 9 15 5 8 1015.1 1015.2 0.0
23/10:30am 16.1 13.9 9.3 64 3.5 SSE 11 20 6 11 1015.5 1015.6 0.0
23/10:00am 15.2 12.7 8.4 64 3.5 S 11 17 6 9 1015.9 1015.9 0.0
23/09:30am 14.2 12.0 7.7 65 3.2 S 9 15 5 8 1015.9 1015.9 0.0
23/09:00am 13.3 11.7 8.6 73 2.4 S 7 11 4 6 1015.8 1015.8 0.0
23/08:30am 11.9 10.1 7.8 76 2.0 SSE 7 9 4 5 1015.6 1015.7 0.0
23/08:00am 10.5 8.8 7.7 83 1.4 S 6 9 3 5 1015.5 1015.6 0.0
23/07:30am 9.4 8.9 8.0 91 0.7 CALM 0 0 0 0 1015.6 1015.7 0.0
23/07:00am 7.6 7.0 7.6 100 0.0 CALM 0 0 0 0 1015.6 1015.7 0.0
23/06:30am 5.9 4.6 5.8 99 0.0 WNW 2 7 1 4 1015.4 1015.5 0.0
23/06:00am 5.2 4.0 4.8 97 0.2 CALM 0 0 0 0 1015.0 1015.1 0.0
23/05:30am 5.5 3.6 5.1 97 0.2 NE 4 7 2 4 1014.9 1015.0 0.0
23/05:00am 6.5 5.6 6.2 98 0.1 CALM 0 0 0 0 1014.9 1015.0 0.0
23/04:30am 6.4 5.4 5.8 96 0.3 CALM 0 0 0 0 1014.9 1015.0 0.0
23/04:00am 6.5 5.5 5.8 95 0.3 CALM 0 0 0 0 1014.7 1014.8 0.0
23/03:30am 7.5 6.1 7.2 98 0.1 NW 4 9 2 5 1014.6 1014.7 0.0
23/03:00am 6.7 5.0 6.0 95 0.3 SSW 4 7 2 4 1014.5 1014.6 0.0
23/02:30am 7.2 5.6 6.5 95 0.3 NNW 4 7 2 4 1014.2 1014.3 0.0
23/02:00am 7.2 5.0 6.3 94 0.4 NNW 7 9 4 5 1014.1 1014.2 0.0
23/01:30am 7.8 5.4 7.1 95 0.3 NNW 9 11 5 6 1014.3 1014.4 0.0
23/01:00am 7.9 6.0 6.7 92 0.6 NNW 6 7 3 4 1014.4 1014.5 0.0
23/12:30am 8.4 6.6 7.2 92 0.6 NNW 6 7 3 4 1014.6 1014.7 0.0
23/12:00am 8.6 8.0 7.2 91 0.7 CALM 0 0 0 0 1014.5 1014.6 0.0
 
Date/Time
EST
Temp
°C
App
Temp
°C
Dew
Point
°C
Rel
Hum
%
Delta-T
°C
Wind Press
QNH
hPa
Press
MSL
hPa
Rain since
9am
mm
Dir  Spd
km/h
Gust
km/h
Spd
kts
Gust
kts
22/11:30pm 9.8 9.5 8.6 92 0.6 CALM 0 0 0 0 1014.8 1014.9 0.0
22/11:00pm 9.0 8.1 7.6 91 0.7 NE 2 6 1 3 1014.7 1014.8 0.0
22/10:30pm 10.2 9.4 8.1 87 1.0 SW 2 9 1 5 1015.2 1015.3 0.0
22/10:00pm 10.3 8.4 7.5 83 1.4 SW 7 9 4 5 1015.2 1015.3 0.0
22/09:30pm 11.8 11.0 8.3 79 1.7 W 2 7 1 4 1015.0 1015.1 0.0
22/09:00pm 12.1 11.7 8.2 77 1.9 CALM 0 0 0 0 1014.8 1014.9 0.0
22/08:30pm 12.4 10.0 8.5 77 2.0 W 11 15 6 8 1014.6 1014.7 0.0
22/08:00pm 13.1 11.1 8.6 74 2.3 WSW 9 13 5 7 1014.3 1014.4 0.0
22/07:30pm 14.1 11.0 8.7 70 2.7 WSW 15 19 8 10 1014.2 1014.3 0.0
22/07:00pm 14.5 11.4 8.9 69 2.9 WSW 15 20 8 11 1013.9 1014.0 0.0
22/06:30pm 14.8 11.4 9.0 68 3.0 W 17 20 9 11 1013.7 1013.8 0.0
22/06:00pm 15.4 11.6 8.9 65 3.3 WSW 19 26 10 14 1013.4 1013.5 0.0
22/05:30pm 15.6 11.2 8.8 64 3.5 W 22 28 12 15 1013.0 1013.1 0.0
22/05:00pm 16.0 11.6 9.0 63 3.6 WSW 22 32 12 17 1012.6 1012.6 0.0
22/04:30pm 17.4 12.8 9.8 61 4.0 W 24 35 13 19 1012.1 1012.1 0.0
22/04:00pm 17.7 13.5 9.6 59 4.3 W 22 30 12 16 1011.8 1011.8 0.0
22/03:30pm 17.2 12.5 9.4 60 4.1 WSW 24 30 13 16 1011.6 1011.6 0.0
22/03:00pm 17.6 12.3 10.0 61 4.1 W 28 35 15 19 1011.5 1011.5 0.0
22/02:30pm 17.9 12.9 9.5 58 4.4 W 26 35 14 19 1011.4 1011.4 0.0
22/02:00pm 17.8 13.0 10.4 62 4.0 W 26 35 14 19 1011.4 1011.4 0.0

Other Formats:

Comma delimited format used in spreadsheet applications
http://www.bom.gov.au/fwo/IDV60801/IDV60801.95896.axf

JavaScript Object Notation format (JSON) in row-major order
http://www.bom.gov.au/fwo/IDV60801/IDV60801.95896.json